createdAt,value
2022-08-22T00:01:13.491Z,3.92
2022-08-22T00:02:43.289Z,2.47
2022-08-22T00:02:57.486Z,3.85
2022-08-22T00:04:21.267Z,3.67
2022-08-22T00:07:18.261Z,3.92
2022-08-22T00:10:25.401Z,3.85
2022-08-22T00:13:18.544Z,3.75
2022-08-22T00:16:03.746Z,3.42
2022-08-22T00:19:02.941Z,4.10
2022-08-22T00:22:07.925Z,4.10
2022-08-22T00:25:47.144Z,3.80
2022-08-22T00:28:41.981Z,4.05
2022-08-22T00:31:31.249Z,4.22
2022-08-22T00:34:26.476Z,4.35
2022-08-22T00:37:20.756Z,4.38
2022-08-22T00:40:28.593Z,4.10
2022-08-22T00:43:30.679Z,4.70
2022-08-22T00:46:23.764Z,4.13
2022-08-22T00:49:40.053Z,3.97
2022-08-22T00:52:52.696Z,3.90
2022-08-22T00:56:02.001Z,3.92
2022-08-22T00:59:18.083Z,3.92
2022-08-22T01:02:21.043Z,3.90
2022-08-22T01:05:38.865Z,4.15
2022-08-22T01:08:39.128Z,4.20
2022-08-22T01:11:42.796Z,4.50
2022-08-22T01:14:34.387Z,4.05
2022-08-22T01:17:48.632Z,4.35
2022-08-22T01:20:43.313Z,4.50
2022-08-22T01:23:50.739Z,4.10
2022-08-22T01:27:13.250Z,4.10
2022-08-22T01:30:44.239Z,3.95
2022-08-22T01:33:55.669Z,4.28
2022-08-22T01:37:07.954Z,4.20
2022-08-22T01:40:11.431Z,4.32
2022-08-22T01:43:12.049Z,4.40
2022-08-22T01:46:21.202Z,4.15
2022-08-22T01:49:38.649Z,4.00
2022-08-22T01:52:39.009Z,4.90
2022-08-22T01:55:48.021Z,4.25
2022-08-22T01:58:36.968Z,4.63
2022-08-22T02:01:25.497Z,4.50
2022-08-22T02:04:18.088Z,4.25
2022-08-22T02:07:20.011Z,4.60
2022-08-22T02:10:41.500Z,4.43
2022-08-22T02:13:41.952Z,4.72
2022-08-22T02:16:40.122Z,4.10
2022-08-22T02:19:39.963Z,4.40
2022-08-22T02:22:56.602Z,4.80
2022-08-22T02:26:03.077Z,4.13
2022-08-22T02:29:08.721Z,4.13
2022-08-22T02:32:00.687Z,4.10
2022-08-22T02:34:55.244Z,4.00
2022-08-22T02:38:05.345Z,5.03
2022-08-22T02:41:04.254Z,5.00
2022-08-22T02:43:57.188Z,4.20
2022-08-22T02:46:51.331Z,4.50
2022-08-22T02:49:51.017Z,4.50
2022-08-22T02:53:08.508Z,4.50
2022-08-22T02:56:05.969Z,4.35
2022-08-22T02:59:12.824Z,4.43
2022-08-22T03:02:18.714Z,4.50
2022-08-22T03:05:25.387Z,4.50
2022-08-22T03:08:27.327Z,4.70
2022-08-22T03:11:31.352Z,4.15
2022-08-22T03:14:41.798Z,4.38
2022-08-22T03:17:33.052Z,4.57
2022-08-22T03:20:45.403Z,4.18
2022-08-22T03:23:45.922Z,4.60
2022-08-22T03:27:00.793Z,4.50
2022-08-22T03:29:51.202Z,4.13
2022-08-22T03:32:55.486Z,4.70
2022-08-22T03:35:46.381Z,4.38
2022-08-22T03:38:34.318Z,4.50
2022-08-22T03:41:35.009Z,4.40
2022-08-22T03:44:51.436Z,4.35
2022-08-22T03:48:14.525Z,4.30
2022-08-22T03:51:13.561Z,4.32
2022-08-22T03:54:20.069Z,4.40
2022-08-22T03:57:26.863Z,4.00
2022-08-22T04:00:32.160Z,3.90
2022-08-22T04:03:59.033Z,4.60
2022-08-22T04:07:32.309Z,4.60
2022-08-22T04:10:53.030Z,4.50
2022-08-22T04:14:03.411Z,4.18
2022-08-22T04:17:25.316Z,4.95
2022-08-22T04:20:32.422Z,5.45
2022-08-22T04:23:42.869Z,4.57
2022-08-22T04:26:52.589Z,4.45
2022-08-22T04:29:58.704Z,4.60
2022-08-22T04:32:51.317Z,4.10
2022-08-22T04:35:46.121Z,4.40
2022-08-22T04:38:38.020Z,4.32
2022-08-22T04:41:48.820Z,4.20
2022-08-22T04:44:51.913Z,4.53
2022-08-22T04:47:43.585Z,4.40
2022-08-22T04:50:43.271Z,4.45
2022-08-22T04:53:47.388Z,4.70
2022-08-22T04:56:50.960Z,4.40
2022-08-22T04:59:36.945Z,4.40
2022-08-22T05:02:25.967Z,4.22
2022-08-22T05:05:17.518Z,4.88
2022-08-22T05:08:06.000Z,4.55
2022-08-22T05:10:54.074Z,5.05
2022-08-22T05:13:46.944Z,4.90
2022-08-22T05:16:40.938Z,5.60
2022-08-22T05:19:40.017Z,6.18
2022-08-22T05:22:33.013Z,6.00
2022-08-22T05:25:24.277Z,6.88
2022-08-22T05:28:20.920Z,6.05
2022-08-22T05:31:11.105Z,6.20
2022-08-22T05:34:04.231Z,6.32
2022-08-22T05:37:03.783Z,6.18
2022-08-22T05:39:58.086Z,6.20
2022-08-22T05:42:43.874Z,5.90
2022-08-22T05:45:35.165Z,5.97
2022-08-22T05:48:26.497Z,6.20
2022-08-22T05:51:24.251Z,7.05
2022-08-22T05:54:17.118Z,6.22
2022-08-22T05:57:08.130Z,6.47
2022-08-22T06:00:01.197Z,6.10
2022-08-22T06:03:03.384Z,5.38
2022-08-22T06:05:53.218Z,5.70
2022-08-22T06:08:48.409Z,5.63
2022-08-22T06:11:51.940Z,5.68
2022-08-22T06:14:56.617Z,5.93
2022-08-22T06:17:47.468Z,5.60
2022-08-22T06:21:02.481Z,6.30
2022-08-22T06:23:53.634Z,5.65
2022-08-22T06:26:48.704Z,5.68
2022-08-22T06:29:37.801Z,6.45
2022-08-22T06:32:32.631Z,5.90
2022-08-22T06:35:40.547Z,6.03
2022-08-22T06:38:32.005Z,5.68
2022-08-22T06:41:19.963Z,5.35
2022-08-22T06:44:06.911Z,5.70
2022-08-22T06:46:57.475Z,5.70
2022-08-22T06:49:45.083Z,6.03
2022-08-22T06:52:37.150Z,5.82
2022-08-22T06:55:24.981Z,5.50
2022-08-22T06:58:17.088Z,5.53
2022-08-22T07:01:12.235Z,5.40
2022-08-22T07:04:03.156Z,5.15
2022-08-22T07:06:51.177Z,5.07
2022-08-22T07:09:40.394Z,5.30
2022-08-22T07:12:35.492Z,4.82
2022-08-22T07:15:23.825Z,5.13
2022-08-22T07:18:14.709Z,4.68
2022-08-22T07:21:04.700Z,7.80
2022-08-22T07:23:50.781Z,5.90
2022-08-22T07:27:18.132Z,4.80
2022-08-22T07:30:13.092Z,4.63
2022-08-22T07:33:26.352Z,5.05
2022-08-22T07:36:36.604Z,4.50
2022-08-22T07:39:35.291Z,4.88
2022-08-22T07:42:44.058Z,4.68
2022-08-22T07:45:32.791Z,4.75
2022-08-22T07:48:29.157Z,4.97
2022-08-22T07:51:17.847Z,4.60
2022-08-22T07:54:07.451Z,4.10
2022-08-22T07:57:02.148Z,4.15
2022-08-22T07:59:52.248Z,3.58
2022-08-22T08:02:44.722Z,3.92
2022-08-22T08:05:36.978Z,3.83
2022-08-22T08:08:29.491Z,3.60
2022-08-22T08:11:16.808Z,5.65
2022-08-22T08:14:06.468Z,4.40
2022-08-22T08:17:04.217Z,4.20
2022-08-22T08:19:50.697Z,5.10
2022-08-22T08:22:40.057Z,4.55
2022-08-22T08:25:28.541Z,3.30
2022-08-22T08:28:14.499Z,3.40
2022-08-22T08:31:19.374Z,3.00
2022-08-22T08:34:15.395Z,3.40
2022-08-22T08:37:21.997Z,2.80
2022-08-22T08:40:20.993Z,3.00
2022-08-22T08:43:30.585Z,2.90
2022-08-22T08:46:25.312Z,3.53
2022-08-22T08:49:42.180Z,3.10
2022-08-22T08:52:45.560Z,2.60
2022-08-22T08:56:03.169Z,2.60
2022-08-22T08:59:26.059Z,3.00
2022-08-22T09:02:27.347Z,2.58
2022-08-22T09:05:48.870Z,2.35
2022-08-22T09:08:48.616Z,2.22
2022-08-22T09:12:01.109Z,2.53
2022-08-22T09:15:01.242Z,2.17
2022-08-22T09:18:24.833Z,2.03
2022-08-22T09:21:31.209Z,2.20
2022-08-22T09:24:35.137Z,2.35
2022-08-22T09:27:35.121Z,2.22
2022-08-22T09:30:27.625Z,2.42
2022-08-22T09:33:21.069Z,1.90
2022-08-22T09:36:24.352Z,1.92
2022-08-22T09:39:25.968Z,2.00
2022-08-22T09:42:23.537Z,1.92
2022-08-22T09:45:50.093Z,1.90
2022-08-22T09:48:38.163Z,2.03
2022-08-22T09:51:35.731Z,2.13
2022-08-22T09:54:31.111Z,1.70
2022-08-22T09:57:32.078Z,2.05
2022-08-22T10:00:23.104Z,2.00
2022-08-22T10:03:22.803Z,2.00
2022-08-22T10:06:17.840Z,1.90
2022-08-22T10:09:31.293Z,2.00
2022-08-22T10:12:27.122Z,2.05
2022-08-22T10:15:33.828Z,1.85
2022-08-22T10:18:53.933Z,1.90
2022-08-22T10:21:49.593Z,2.13
2022-08-22T10:25:20.117Z,1.90
2022-08-22T10:28:37.636Z,2.22
2022-08-22T10:31:29.016Z,1.98
2022-08-22T10:34:21.787Z,1.80
2022-08-22T10:37:28.381Z,2.10
2022-08-22T10:40:21.716Z,2.08
2022-08-22T10:43:21.250Z,2.47
2022-08-22T10:46:27.408Z,1.85
2022-08-22T10:49:19.466Z,2.20
2022-08-22T10:52:15.567Z,2.20
2022-08-22T10:55:20.526Z,2.42
2022-08-22T10:58:14.364Z,2.22
2022-08-22T11:01:38.106Z,1.95
2022-08-22T11:04:37.783Z,2.00
2022-08-22T11:07:28.962Z,3.08
2022-08-22T11:10:46.866Z,1.83
2022-08-22T11:14:12.329Z,2.05
2022-08-22T11:17:30.304Z,2.10
2022-08-22T11:20:19.900Z,5.15
2022-08-22T11:23:29.370Z,2.47
2022-08-22T11:26:33.598Z,2.20
2022-08-22T11:29:48.370Z,1.90
2022-08-22T11:33:01.245Z,1.90
2022-08-22T11:36:12.850Z,2.00
2022-08-22T11:39:02.695Z,1.90
2022-08-22T11:41:52.344Z,2.10
2022-08-22T11:44:50.151Z,2.05
2022-08-22T11:47:45.658Z,1.90
2022-08-22T11:50:38.233Z,2.08
2022-08-22T11:53:45.940Z,1.92
2022-08-22T11:56:40.173Z,2.05
2022-08-22T11:59:40.023Z,1.90
2022-08-22T12:02:28.644Z,1.88
2022-08-22T12:05:26.493Z,2.10
2022-08-22T12:08:30.122Z,2.00
2022-08-22T12:11:56.912Z,1.90
2022-08-22T12:14:42.844Z,2.00
2022-08-22T12:17:55.687Z,2.05
2022-08-22T12:20:55.702Z,2.00
2022-08-22T12:24:06.112Z,2.25
2022-08-22T12:27:28.578Z,1.90
2022-08-22T12:30:57.856Z,1.88
2022-08-22T12:34:24.386Z,2.00
2022-08-22T12:37:20.862Z,1.90
2022-08-22T12:40:32.067Z,2.00
2022-08-22T12:43:24.509Z,2.00
2022-08-22T12:46:25.358Z,2.20
2022-08-22T12:49:32.120Z,2.10
2022-08-22T12:52:44.286Z,1.92
2022-08-22T12:55:48.173Z,2.28
2022-08-22T12:58:45.937Z,2.10
2022-08-22T13:01:43.133Z,2.20
2022-08-22T13:04:34.091Z,1.95
2022-08-22T13:07:27.830Z,2.25
2022-08-22T13:10:14.083Z,2.00
2022-08-22T13:13:11.906Z,2.10
2022-08-22T13:16:16.268Z,2.28
2022-08-22T13:19:30.937Z,2.33
2022-08-22T13:22:25.585Z,2.05
2022-08-22T13:25:29.591Z,2.20
2022-08-22T13:28:15.065Z,2.30
2022-08-22T13:31:02.643Z,2.30
2022-08-22T13:33:48.584Z,2.20
2022-08-22T13:36:51.622Z,2.47
2022-08-22T13:39:42.330Z,2.22
2022-08-22T13:42:30.954Z,2.00
2022-08-22T13:45:28.007Z,2.05
2022-08-22T13:48:15.099Z,2.35
2022-08-22T13:51:13.856Z,2.22
2022-08-22T13:54:10.948Z,2.10
2022-08-22T13:57:08.746Z,14.73
2022-08-22T14:00:07.798Z,4.30
2022-08-22T14:03:25.385Z,2.15
2022-08-22T14:06:37.425Z,2.20
2022-08-22T14:09:45.338Z,3.03
2022-08-22T14:12:57.062Z,2.55
2022-08-22T14:15:45.055Z,2.33
2022-08-22T14:18:35.621Z,2.28
2022-08-22T14:21:39.988Z,2.10
2022-08-22T14:24:55.942Z,2.08
2022-08-22T14:27:55.011Z,2.20
2022-08-22T14:31:00.935Z,2.35
2022-08-22T14:33:52.696Z,2.10
2022-08-22T14:36:48.708Z,2.25
2022-08-22T14:39:44.308Z,2.17
2022-08-22T14:42:58.699Z,2.20
2022-08-22T14:45:54.220Z,2.42
2022-08-22T14:49:06.388Z,2.08
2022-08-22T14:51:57.941Z,2.08
2022-08-22T14:54:43.276Z,2.20
2022-08-22T14:57:30.068Z,2.20
2022-08-22T15:00:25.764Z,2.20
2022-08-22T15:03:19.659Z,2.50
2022-08-22T15:06:10.958Z,3.05
2022-08-22T15:08:57.711Z,2.60
2022-08-22T15:11:48.013Z,3.00
2022-08-22T15:14:37.412Z,2.30
2022-08-22T15:17:44.476Z,2.38
2022-08-22T15:20:38.216Z,2.50
2022-08-22T15:23:32.054Z,2.25
2022-08-22T15:26:24.080Z,2.10
2022-08-22T15:29:16.933Z,2.40
2022-08-22T15:32:03.880Z,2.30
2022-08-22T15:34:52.362Z,2.33
2022-08-22T15:38:01.544Z,2.20
2022-08-22T15:40:46.947Z,2.50
2022-08-22T15:43:44.104Z,2.35
2022-08-22T15:46:37.221Z,2.13
2022-08-22T15:49:22.128Z,2.13
2022-08-22T15:52:19.875Z,2.70
2022-08-22T15:55:16.453Z,2.78
2022-08-22T15:58:09.912Z,2.58
2022-08-22T16:01:18.797Z,3.58
2022-08-22T16:04:08.181Z,5.20
2022-08-22T16:06:56.917Z,2.60
2022-08-22T16:09:49.235Z,2.55
2022-08-22T16:12:44.816Z,2.78
2022-08-22T16:15:51.325Z,2.85
2022-08-22T16:18:39.680Z,2.55
2022-08-22T16:21:25.069Z,2.80
2022-08-22T16:24:10.043Z,2.65
2022-08-22T16:26:55.641Z,2.92
2022-08-22T16:29:42.009Z,2.70
2022-08-22T16:32:27.870Z,2.55
2022-08-22T16:35:51.213Z,2.47
2022-08-22T16:40:59.118Z,2.67
2022-08-22T16:43:52.687Z,2.50
2022-08-22T16:46:43.874Z,2.90
2022-08-22T16:49:33.977Z,2.30
2022-08-22T16:52:25.320Z,3.33
2022-08-22T16:55:29.060Z,2.60
2022-08-22T16:58:35.812Z,3.03
2022-08-22T17:01:50.024Z,2.78
2022-08-22T17:04:50.257Z,2.22
2022-08-22T17:08:00.239Z,2.60
2022-08-22T17:11:08.358Z,2.60
2022-08-22T17:14:20.071Z,2.70
2022-08-22T17:17:11.087Z,2.80
2022-08-22T17:20:04.677Z,2.85
2022-08-22T17:22:55.835Z,2.83
2022-08-22T17:26:26.003Z,2.60
2022-08-22T17:29:38.384Z,2.45
2022-08-22T17:32:32.548Z,2.90
2022-08-22T17:35:32.886Z,3.20
2022-08-22T17:38:32.165Z,3.00
2022-08-22T17:41:38.050Z,2.70
2022-08-22T17:44:49.500Z,6.78
2022-08-22T17:47:46.940Z,2.90
2022-08-22T17:50:54.108Z,2.80
2022-08-22T17:53:53.563Z,2.90
2022-08-22T17:57:05.375Z,3.10
2022-08-22T18:00:00.507Z,3.70
2022-08-22T18:03:23.548Z,3.30
2022-08-22T18:06:23.608Z,2.78
2022-08-22T18:09:25.478Z,2.80
2022-08-22T18:12:20.420Z,3.05
2022-08-22T18:15:13.454Z,2.90
2022-08-22T18:18:31.202Z,3.25
2022-08-22T18:21:30.384Z,3.05
2022-08-22T18:24:49.523Z,2.90
2022-08-22T18:27:59.670Z,3.08
2022-08-22T18:30:55.227Z,3.00
2022-08-22T18:33:53.782Z,3.15
2022-08-22T18:36:48.720Z,2.85
2022-08-22T18:39:46.606Z,2.58
2022-08-22T18:42:41.179Z,2.95
2022-08-22T18:45:45.262Z,2.70
2022-08-22T18:48:59.224Z,2.67
2022-08-22T18:52:05.237Z,3.05
2022-08-22T18:55:18.153Z,3.30
2022-08-22T18:58:26.718Z,3.38
2022-08-22T19:01:47.103Z,4.00
2022-08-22T19:05:10.041Z,2.90
2022-08-22T19:08:04.307Z,3.00
2022-08-22T19:11:36.848Z,2.70
2022-08-22T19:14:25.084Z,2.85
2022-08-22T19:18:01.110Z,3.08
2022-08-22T19:21:32.352Z,2.60
2022-08-22T19:24:20.316Z,2.88
2022-08-22T19:27:18.154Z,2.80
2022-08-22T19:30:28.089Z,2.83
2022-08-22T19:33:19.314Z,3.42
2022-08-22T19:36:30.016Z,2.92
2022-08-22T19:39:41.139Z,3.10
2022-08-22T19:42:26.373Z,2.70
2022-08-22T19:45:25.877Z,3.03
2022-08-22T19:48:14.379Z,3.53
2022-08-22T19:51:27.419Z,3.67
2022-08-22T19:54:22.299Z,3.10
2022-08-22T19:57:35.440Z,3.22
2022-08-22T20:00:38.965Z,3.08
2022-08-22T20:03:53.701Z,2.80
2022-08-22T20:07:03.820Z,2.97
2022-08-22T20:10:14.672Z,3.22
2022-08-22T20:13:00.112Z,2.92
2022-08-22T20:16:04.236Z,2.85
2022-08-22T20:19:15.314Z,2.70
2022-08-22T20:22:03.528Z,2.70
2022-08-22T20:24:52.258Z,2.90
2022-08-22T20:27:47.925Z,2.53
2022-08-22T20:30:42.891Z,2.88
2022-08-22T20:33:33.154Z,2.78
2022-08-22T20:36:27.848Z,2.88
2022-08-22T20:39:35.769Z,2.83
2022-08-22T20:42:21.370Z,2.80
2022-08-22T20:45:12.182Z,2.67
2022-08-22T20:47:57.949Z,3.10
2022-08-22T20:50:43.392Z,3.05
2022-08-22T20:53:28.601Z,3.08
2022-08-22T20:56:14.124Z,3.33
2022-08-22T20:59:01.214Z,3.50
2022-08-22T21:01:47.234Z,3.10
2022-08-22T21:04:49.629Z,2.92
2022-08-22T21:07:41.390Z,3.40
2022-08-22T21:10:30.371Z,2.92
2022-08-22T21:13:26.174Z,2.97
2022-08-22T21:16:16.562Z,2.80
2022-08-22T21:19:01.952Z,3.00
2022-08-22T21:21:47.256Z,3.03
2022-08-22T21:24:32.719Z,2.70
2022-08-22T21:27:26.836Z,3.03
2022-08-22T21:30:24.822Z,2.80
2022-08-22T21:33:23.696Z,2.83
2022-08-22T21:36:13.603Z,2.75
2022-08-22T21:39:11.361Z,2.65
2022-08-22T21:41:59.721Z,2.88
2022-08-22T21:44:59.130Z,2.80
2022-08-22T21:47:44.777Z,2.63
2022-08-22T21:50:33.730Z,2.53
2022-08-22T21:53:27.143Z,2.75
2022-08-22T21:56:15.332Z,2.70
2022-08-22T21:59:51.934Z,2.42
2022-08-22T22:02:44.412Z,2.55
2022-08-22T22:05:29.787Z,2.65
2022-08-22T22:08:15.688Z,2.67
2022-08-22T22:11:06.157Z,2.78
2022-08-22T22:13:53.860Z,2.65
2022-08-22T22:16:39.342Z,2.60
2022-08-22T22:19:24.313Z,2.95
2022-08-22T22:22:09.546Z,2.65
2022-08-22T22:24:54.751Z,2.60
2022-08-22T22:27:40.216Z,2.80
2022-08-22T22:30:25.486Z,2.67
2022-08-22T22:33:10.567Z,2.35
2022-08-22T22:35:58.734Z,2.97
2022-08-22T22:38:44.398Z,2.70
2022-08-22T22:41:29.578Z,2.60
2022-08-22T22:44:14.510Z,2.60
2022-08-22T22:47:02.618Z,2.60
2022-08-22T22:49:47.947Z,2.85
2022-08-22T22:52:33.089Z,2.63
2022-08-22T22:55:24.363Z,2.65
2022-08-22T22:58:10.308Z,2.33
2022-08-22T23:00:56.337Z,2.60
2022-08-22T23:03:42.697Z,2.78
2022-08-22T23:06:30.162Z,2.50
2022-08-22T23:09:15.497Z,3.25
2022-08-22T23:12:03.737Z,2.53
2022-08-22T23:14:49.261Z,3.08
2022-08-22T23:17:35.120Z,2.88
2022-08-22T23:20:20.235Z,3.15
2022-08-22T23:23:05.763Z,2.90
2022-08-22T23:25:50.630Z,2.72
2022-08-22T23:28:35.477Z,2.90
2022-08-22T23:31:32.626Z,3.00
2022-08-22T23:34:21.984Z,2.90
2022-08-22T23:37:07.644Z,3.03
2022-08-22T23:39:53.050Z,3.17
2022-08-22T23:42:39.031Z,2.90
2022-08-22T23:45:24.003Z,2.90
2022-08-22T23:48:09.420Z,3.15
2022-08-22T23:50:54.859Z,3.08
2022-08-22T23:53:40.646Z,2.78
2022-08-22T23:56:36.456Z,3.05
2022-08-22T23:59:24.901Z,2.95
